Latest Coastal Weather Observations for Smithton

IDV60701

Issued at 11:21 am EST Wednesday 25 May 2016 (issued every 10 minutes, with the page automatically refreshed every 10 minutes)

About coastal observations | Map of coastal stations | Coastal observations for VIC | Marine services | Other Formats
Station Details ID: 091292 Name: SMITHTON AERODROME Lat: -40.83 Lon: 145.08 Height: 7.5 m
Data from the previous 72 hours. | See also: Recent months at Smithton
Date/Time
EST
Temp

°C
Wind Pressure Rain
since 9am
mm
Weather Cloud Vis
km
Sea
Height
m
Swell
Dir
 
Speed
knots
Gust
knots
hPa Trend Height
m
Period
s
Dir
25/11:00am 14.8 NNE 13 16 1010.5 - 0.0 - - - - - - -
25/10:30am 13.6 ENE 8 10 1011.0 - 0.0 - - - - - - -
25/10:00am 12.0 ENE 9 12 1011.3 - 0.0 - - - - - - -
25/09:30am 10.1 S 5 7 1012.1 - 0.0 - - - - - - -
25/09:00am 8.2 SSW 4 5 1012.2 - 0.0 - - - - - - -
25/08:30am 6.3 SSW 2 4 1012.6 - 0.0 - - - - - - -
25/08:00am 5.6 SSW 3 5 1012.8 - 0.0 - - - - - - -
25/07:30am 5.2 SSW 4 5 1013.0 - 0.0 - - - - - - -
25/07:00am 5.1 SSW 4 5 1012.9 - 0.0 - - - - - - -
25/06:30am 6.0 CALM 0 4 1013.2 - 0.0 - - - - - - -
25/06:00am 5.6 SSW 4 6 1013.7 - 0.0 - - - - - - -
25/05:30am 4.8 CALM 0 0 1013.6 - 0.0 - - - - - - -
25/05:00am 4.2 SSW 4 5 1014.0 - 0.0 - - - - - - -
25/04:30am 3.4 SSW 5 6 1014.1 - 0.0 - - - - - - -
25/04:00am 4.2 SSW 5 6 1014.3 - 0.0 - - - - - - -
25/03:30am 4.2 SW 5 5 1014.9 - 0.0 - - - - - - -
25/03:00am 2.3 SW 5 6 1015.2 - 0.0 - - - - - - -
25/02:30am 3.2 SW 4 5 1015.3 - 0.0 - - - - - - -
25/02:00am 1.7 SW 4 5 1015.5 - 0.0 - - - - - - -
25/01:30am 2.5 SW 5 5 1015.4 - 0.0 - - - - - - -
25/01:00am 1.5 WSW 6 7 1015.5 - 0.0 - - - - - - -
25/12:30am 1.8 WSW 2 4 1015.7 - 0.0 - - - - - - -
25/12:00am 2.4 CALM 0 0 1016.5 - 0.0 - - - - - - -
 
Date/Time
EST
Temp

°C
Wind Pressure Rain
since 9am
mm
Weather Cloud Vis
km
Sea
Height
m
Swell
Dir
 
Speed
knots
Gust
knots
hPa Trend Height
m
Period
s
Dir
24/11:30pm 3.0 WSW 1 3 1016.6 - 0.0 - - - - - - -
24/11:00pm 5.0 WSW 2 4 1016.5 - 0.0 - - - - - - -
24/10:30pm 4.3 WSW 5 6 1016.8 - 0.0 - - - - - - -
24/10:00pm 5.2 CALM 0 0 1016.9 - 0.0 - - - - - - -
24/09:30pm 6.1 WSW 3 4 1017.2 - 0.0 - - - - - - -
24/09:00pm 7.2 WSW 3 5 1017.7 - 0.0 - - - - - - -
24/08:30pm 8.8 WSW 3 4 1017.7 - 0.0 - - - - - - -
24/08:00pm 9.1 W 7 8 1017.8 - 0.0 - - - - - - -
24/07:30pm 8.8 W 6 7 1017.7 - 0.0 - - - - - - -
24/07:00pm 9.3 W 6 7 1017.7 - 0.0 - - - - - - -
24/06:30pm 8.2 W 6 7 1017.5 - 0.0 - - - - - - -
24/06:00pm 8.1 WSW 7 8 1017.3 - 0.0 - - - - - - -
24/05:30pm 8.8 SW 7 8 1017.0 - 0.0 - - - - - - -
24/05:00pm 10.8 WSW 12 15 1016.9 - 0.0 - - - - - - -
24/04:30pm 11.6 SW 9 11 1017.0 - 0.0 - - - - - - -
24/04:00pm 11.7 SSW 11 14 1016.9 - 0.0 - - - - - - -
24/03:30pm 12.1 WSW 13 21 1016.8 - 0.0 - - - - - - -
24/03:00pm 12.9 WSW 16 21 1016.4 - 0.0 - - - - - - -
24/02:30pm 12.4 SW 13 16 1016.2 - 0.0 - - - - - - -
24/02:00pm 13.0 SW 13 17 1015.9 - 0.0 - - - - - - -
24/01:30pm 12.9 SW 18 23 1016.0 - 0.0 - - - - - - -
24/01:00pm 13.6 WSW 14 18 1016.3 - 0.0 - - - - - - -
24/12:30pm 12.9 SW 13 19 1016.4 - 0.0 - - - - - - -
24/12:00pm 13.6 WSW 12 15 1016.5 - 0.0 - - - - - - -
24/11:30am 12.9 SW 14 17 1016.8 - 0.0 - - - - - - -
24/11:00am 12.4 SW 14 18 1017.0 - 0.0 - - - - - - -
24/10:30am 12.7 SW 12 15 1017.1 - 0.0 - - - - - - -
24/10:00am 12.1 SW 11 15 1017.2 - 0.0 - - - - - - -
24/09:30am 11.4 SW 10 13 1017.1 - 0.0 - - - - - - -
24/09:00am 10.7 WSW 11 15 1016.8 - 4.0 - - - - - - -
24/08:30am 9.7 SW 13 16 1016.9 - 4.0 - - - - - - -
24/08:00am 7.3 W 8 8 1016.5 - 4.0 - - - - - - -
24/07:30am 5.8 W 7 8 1016.2 - 4.0 - - - - - - -
24/07:00am 6.2 SSW 4 6 1016.0 - 4.0 - - - - - - -
24/06:30am 6.7 SSW 6 6 1015.3 - 4.0 - - - - - - -
24/06:00am 7.4 SW 5 6 1015.0 - 4.0 - - - - - - -
24/05:30am 8.3 SW 8 11 1014.8 - 4.0 - - - - - - -
24/05:00am 7.9 WSW 10 13 1014.4 - 4.0 - - - - - - -
24/04:30am 7.9 WSW 8 11 1014.3 - 4.0 - - - - - - -
24/04:00am 7.7 WSW 7 9 1014.2 - 4.0 - - - - - - -
24/03:30am 8.8 SW 11 15 1014.1 - 4.0 - - - - - - -
24/03:00am 9.0 SW 11 15 1014.1 - 4.0 - - - - - - -
24/02:30am 9.0 W 8 9 1014.1 - 4.0 - - - - - - -
24/02:00am 9.1 WSW 11 15 1014.1 - 4.0 - - - - - - -
24/01:30am 6.4 SSW 4 8 1014.3 - 3.6 - - - - - - -
24/01:00am 6.3 SSW 6 10 1014.3 - 3.0 - - - - - - -
24/12:30am 5.8 CALM 0 0 1014.3 - 2.8 - - - - - - -
24/12:00am 6.0 WNW 4 6 1014.5 - 2.8 - - - - - - -
 
Date/Time
EST
Temp

°C
Wind Pressure Rain
since 9am
mm
Weather Cloud Vis
km
Sea
Height
m
Swell
Dir
 
Speed
knots
Gust
knots
hPa Trend Height
m
Period
s
Dir
23/11:30pm 6.4 WSW 5 7 1014.9 - 2.8 - - - - - - -
23/11:00pm 6.7 WSW 6 7 1015.0 - 2.8 - - - - - - -
23/10:30pm 7.1 WSW 7 8 1015.2 - 2.4 - - - - - - -
23/10:00pm 6.7 SW 6 7 1015.2 - 2.4 - - - - - - -
23/09:30pm 7.2 SSW 7 11 1015.1 - 2.4 - - - - - - -
23/09:00pm 7.9 SW 8 10 1015.3 - 2.4 - - - - - - -
23/08:30pm 8.2 WSW 9 11 1015.1 - 2.4 - - - - - - -
23/08:00pm 8.9 WSW 13 16 1014.9 - 2.4 - - - - - - -
23/07:40pm 9.4 WSW 15 25 1015.0 - 2.0 - - - - - - -
23/07:30pm 9.0 SW 13 17 1014.9 - 1.8 - - - - - - -
23/07:00pm 8.9 WSW 13 16 1014.3 - 1.6 - - - - - - -
23/06:30pm 9.1 W 12 16 1014.0 - 1.6 - - - - - - -
23/06:00pm 9.4 WSW 15 22 1013.7 - 1.6 - - - - - - -
23/05:30pm 9.8 WSW 17 21 1013.4 - 1.6 - - - - - - -
23/05:00pm 10.0 WSW 19 26 1013.0 - 1.6 - - - - - - -
23/04:48pm 10.6 WSW 20 31 1012.7 - 1.6 - - - - - - -
23/04:30pm 10.4 WSW 18 25 1012.5 - 1.6 - - - - - - -
23/04:00pm 10.5 WSW 21 32 1012.4 - 1.6 - - - - - - -
23/03:30pm 11.7 WSW 22 33 1012.0 - 1.6 - - - - - - -
23/03:17pm 11.5 WSW 18 30 1011.9 - 1.6 - - - - - - -
23/03:00pm 11.7 WSW 18 23 1011.8 - 1.6 - - - - - - -
23/02:37pm 11.0 SW 28 41 1011.4 - 1.6 - - - - - - -
23/02:35pm 10.8 SW 28 34 1011.6 - 1.6 - - - - - - -
23/02:30pm 12.3 W 24 34 1011.2 - 1.6 - - - - - - -
23/02:00pm 11.5 WSW 23 37 1010.9 - 1.6 - - - - - - -
23/01:57pm 12.3 WSW 21 34 1010.8 - 1.6 - - - - - - -
23/01:49pm 12.3 WSW 21 27 1010.7 - 1.6 - - - - - - -
23/01:30pm 10.8 W 25 34 1010.5 - 1.6 - - - - - - -
23/01:11pm 11.6 WSW 19 29 1010.5 - 1.6 - - - - - - -
23/01:00pm 12.2 W 20 27 1010.3 - 1.6 - - - - - - -
23/12:37pm 10.4 W 20 30 1010.2 - 1.6 - - - - - - -
23/12:30pm 11.8 W 19 24 1009.9 - 0.8 - - - - - - -
23/12:01pm 12.1 W 21 32 1009.9 - 0.4 - - - - - - -
23/12:00pm 12.1 W 20 28 1009.9 - 0.4 - - - - - - -
23/11:37am 12.2 WSW 17 27 1009.7 - 0.4 - - - - - - -
23/11:30am 12.3 WSW 19 27 1009.7 - 0.4 - - - - - - -
23/11:00am 12.0 WSW 18 26 1009.8 - 0.4 - - - - - - -
23/10:40am 11.8 WSW 17 33 1009.4 - 0.2 - - - - - - -
23/10:30am 12.4 WSW 16 22 1009.2 - 0.2 - - - - - - -
23/10:00am 10.8 WSW 18 26 1009.0 - 0.2 - - - - - - -
23/09:50am 10.8 WSW 15 27 1009.1 - 0.2 - - - - - - -
23/09:30am 10.3 WSW 15 21 1008.8 - 0.2 - - - - - - -
23/09:00am 10.1 WSW 20 26 1008.2 - 10.8 - - - - - - -
23/08:45am 10.5 W 18 28 1008.2 - 10.8 - - - - - - -
23/08:30am 10.6 WSW 18 26 1007.6 - 10.6 - - - - - - -
23/08:11am 10.6 WSW 18 28 1007.4 - 10.0 - - - - - - -
23/08:00am 10.7 W 16 23 1007.0 - 9.8 - - - - - - -
23/07:58am 10.8 W 16 23 1006.9 - 9.8 - - - - - - -
23/07:30am 10.9 WSW 9 13 1006.3 - 9.4 - - - - - - -
23/07:00am 11.2 W 11 16 1006.0 - 8.6 - - - - - - -
23/06:30am 11.4 W 18 25 1005.7 - 8.2 - - - - - - -
23/06:11am 11.7 W 23 33 1005.7 - 7.8 - - - - - - -
23/06:07am 12.0 W 25 33 1005.4 - 7.4 - - - - - - -
23/06:03am 12.5 NW 18 28 1005.3 - 7.2 - - - - - - -
23/06:00am 12.5 NW 16 24 1004.8 - 7.2 - - - - - - -
23/05:30am 12.4 NNW 13 19 1005.2 - 6.6 - - - - - - -
23/05:00am 12.4 N 8 10 1005.5 - 6.2 - - - - - - -
23/04:30am 11.7 WNW 5 6 1005.6 - 6.0 - - - - - - -
23/04:00am 11.4 WNW 4 5 1005.5 - 6.0 - - - - - - -
23/03:30am 10.9 SSW 4 6 1006.1 - 6.0 - - - - - - -
23/03:00am 11.3 CALM 0 0 1005.8 - 5.8 - - - - - - -
23/02:30am 11.8 SSW 1 4 1006.2 - 5.4 - - - - - - -
23/02:00am 12.0 SSW 6 9 1006.2 - 4.4 - - - - - - -
23/01:30am 12.5 W 12 15 1007.1 - 4.0 - - - - - - -
23/01:00am 13.2 W 17 24 1007.5 - 2.8 - - - - - - -
23/12:30am 15.5 NW 16 22 1006.1 - 1.8 - - - - - - -
23/12:00am 15.6 N 10 14 1006.5 - 1.6 - - - - - - -
 
Date/Time
EST
Temp

°C
Wind Pressure Rain
since 9am
mm
Weather Cloud Vis
km
Sea
Height
m
Swell
Dir
 
Speed
knots
Gust
knots
hPa Trend Height
m
Period
s
Dir
22/11:30pm 15.4 N 11 15 1006.6 - 1.6 - - - - - - -
22/11:00pm 15.4 N 12 17 1007.2 - 1.4 - - - - - - -
22/10:30pm 15.3 NNE 10 14 1007.6 - 1.0 - - - - - - -
22/10:00pm 15.6 N 12 17 1007.8 - 0.6 - - - - - - -
22/09:30pm 16.7 N 14 19 1008.6 - 0.0 - - - - - - -
22/09:00pm 16.0 NNE 11 14 1008.7 - 0.0 - - - - - - -
22/08:30pm 15.9 ENE 13 16 1008.8 - 0.0 - - - - - - -
22/08:00pm 16.0 ENE 13 16 1009.0 - 0.0 - - - - - - -
22/07:30pm 16.3 NE 13 18 1009.5 - 0.0 - - - - - - -
22/07:00pm 16.2 ENE 12 17 1009.8 - 0.0 - - - - - - -
22/06:30pm 16.2 ENE 13 16 1010.0 - 0.0 - - - - - - -
22/06:00pm 15.7 ENE 11 15 1009.9 - 0.0 - - - - - - -
22/05:30pm 16.1 ENE 13 18 1010.4 - 0.0 - - - - - - -
22/05:00pm 15.5 ENE 15 20 1010.6 - 0.0 - - - - - - -
22/04:30pm 15.6 ENE 14 19 1011.2 - 0.0 - - - - - - -
22/04:00pm 15.8 ENE 14 20 1011.7 - 0.0 - - - - - - -
22/03:30pm 15.7 ENE 14 19 1011.9 - 0.0 - - - - - - -
22/03:00pm 16.1 ENE 17 24 1012.0 - 0.0 - - - - - - -
22/02:30pm 16.9 ENE 15 21 1012.0 - 0.0 - - - - - - -
22/02:00pm 16.4 ENE 16 21 1012.7 - 0.0 - - - - - - -
22/01:30pm 16.5 ENE 16 21 1013.3 - 0.0 - - - - - - -
22/01:00pm 16.8 ENE 16 23 1013.5 - 0.0 - - - - - - -
22/12:30pm 16.2 ENE 20 27 1014.2 - 0.0 - - - - - - -
22/12:00pm 16.7 ENE 18 27 1014.1 - 0.0 - - - - - - -
22/11:30am 16.2 ENE 16 21 1014.7 - 0.0 - - - - - - -

Other Formats:

Comma delimited format used in spreadsheet applications
http://www.bom.gov.au/fwo/IDV60701/IDV60701.94953.axf

JavaScript Object Notation format (JSON) in row-major order
http://www.bom.gov.au/fwo/IDV60701/IDV60701.94953.json